Time;durP1;ratioP1;P1;durP2;ratioP2;P2;SDS_P1;SDS_P2;PMS_P1;PMS_P2;Temp;Humidity;BMP_temperature;BMP_pressure;BME280_temperature;BME280_humidity;BME280_pressure;Samples;Min_cycle;Max_cycle;Signal;HPM_P1;HPM_P2
2022/01/07 00:02:22;;;;;;;113.63;24.50;;;;;;;-1.55;100.00;98506.84;5091799;28;20024;-73
2022/01/07 00:04:48;;;;;;;113.68;27.10;;;;;;;-1.45;100.00;98504.59;5091561;28;20051;-75
2022/01/07 00:07:13;;;;;;;94.80;23.60;;;;;;;-1.38;100.00;98509.97;5106899;28;20373;-76
2022/01/07 00:09:39;;;;;;;81.15;23.27;;;;;;;-1.37;100.00;98512.41;5112543;28;20027;-74
2022/01/07 00:12:05;;;;;;;174.15;26.00;;;;;;;-1.53;100.00;98511.97;5091384;28;20031;-75
2022/01/07 00:14:30;;;;;;;168.23;28.20;;;;;;;-1.56;100.00;98510.53;5099231;28;20028;-74
2022/01/07 00:16:56;;;;;;;69.68;24.42;;;;;;;-1.57;100.00;98506.22;5100733;28;20051;-74
2022/01/07 00:19:21;;;;;;;81.13;25.50;;;;;;;-1.39;100.00;98519.03;5097258;28;20022;-75
2022/01/07 00:21:47;;;;;;;80.68;24.38;;;;;;;-1.39;100.00;98519.84;5111840;28;20028;-74
2022/01/07 00:24:12;;;;;;;94.30;23.08;;;;;;;-1.39;100.00;98514.50;5112044;27;20095;-74
2022/01/07 00:26:38;;;;;;;57.35;24.17;;;;;;;-1.41;100.00;98521.91;5112322;28;20020;-74
2022/01/07 00:29:03;;;;;;;106.20;24.13;;;;;;;-1.39;100.00;98525.22;5112773;28;20472;-74
2022/01/07 00:31:29;;;;;;;90.32;25.35;;;;;;;-1.42;100.00;98522.94;5113025;28;20042;-76
2022/01/07 00:33:54;;;;;;;132.05;29.02;;;;;;;-1.38;100.00;98526.84;5113987;27;20042;-74
2022/01/07 00:36:19;;;;;;;83.47;26.65;;;;;;;-1.42;100.00;98525.63;5112773;28;20038;-75
2022/01/07 00:38:45;;;;;;;224.43;28.48;;;;;;;-1.40;100.00;98528.91;5113067;28;20111;-74
2022/01/07 00:41:10;;;;;;;278.85;31.13;;;;;;;-1.58;100.00;98528.69;5114197;28;20024;-75
2022/01/07 00:43:36;;;;;;;270.83;31.65;;;;;;;-1.67;100.00;98524.56;5113499;28;20096;-75
2022/01/07 00:46:01;;;;;;;291.67;30.90;;;;;;;-1.72;100.00;98522.47;5112264;28;20023;-75
2022/01/07 00:48:27;;;;;;;169.07;29.48;;;;;;;-1.83;100.00;98522.25;5112129;28;20019;-75
2022/01/07 00:50:52;;;;;;;276.50;31.13;;;;;;;-1.83;100.00;98524.94;5111343;28;20030;-73
2022/01/07 00:53:18;;;;;;;228.88;30.00;;;;;;;-1.74;100.00;98527.22;5111373;28;20054;-75
2022/01/07 00:55:44;;;;;;;141.65;26.08;;;;;;;-1.70;100.00;98533.00;5111127;28;20078;-75
2022/01/07 00:58:10;;;;;;;184.32;28.85;;;;;;;-1.78;100.00;98531.34;5112151;28;20111;-75
2022/01/07 01:00:35;;;;;;;192.75;28.73;;;;;;;-1.86;100.00;98528.03;5111695;28;20023;-74
2022/01/07 01:03:01;;;;;;;123.57;27.42;;;;;;;-1.85;100.00;98529.69;5114497;28;20020;-76
2022/01/07 01:05:27;;;;;;;96.25;25.13;;;;;;;-1.71;100.00;98540.22;5111799;28;20557;-75
2022/01/07 01:07:53;;;;;;;233.38;28.92;;;;;;;-1.64;100.00;98538.38;5111671;27;20024;-74
2022/01/07 01:10:24;;;;;;;85.32;26.73;;;;;;;-1.61;100.00;98545.19;5111428;28;20073;-75
2022/01/07 01:12:50;;;;;;;166.45;26.35;;;;;;;-1.68;100.00;98534.47;5111702;28;20027;-75
2022/01/07 01:15:20;;;;;;;124.35;25.75;;;;;;;-1.76;100.00;98531.16;5112829;28;20031;-75
2022/01/07 01:17:46;;;;;;;171.20;26.40;;;;;;;-1.77;100.00;98542.88;5112997;28;20068;-75
2022/01/07 01:20:12;;;;;;;107.72;25.85;;;;;;;-1.88;100.00;98540.81;5111476;28;20028;-74
2022/01/07 01:22:38;;;;;;;178.43;27.95;;;;;;;-1.87;100.00;98545.94;5111221;28;20015;-74
2022/01/07 01:25:05;;;;;;;97.07;23.45;;;;;;;-1.81;100.00;98538.94;5111161;28;20100;-74
2022/01/07 01:27:30;;;;;;;147.98;24.83;;;;;;;-1.82;100.00;98542.69;5111444;28;20140;-74
2022/01/07 01:29:56;;;;;;;190.40;25.60;;;;;;;-1.87;100.00;98548.63;5111379;28;20040;-74
2022/01/07 01:32:21;;;;;;;112.93;24.05;;;;;;;-1.86;100.00;98544.09;5110741;28;20038;-74
2022/01/07 01:34:46;;;;;;;133.70;22.48;;;;;;;-1.83;100.00;98557.09;5110529;28;20035;-74
2022/01/07 01:37:12;;;;;;;62.65;24.52;;;;;;;-1.84;100.00;98547.41;5110802;28;20028;-73
2022/01/07 01:39:37;;;;;;;58.70;21.88;;;;;;;-1.92;100.00;98545.75;5110745;28;20032;-73
2022/01/07 01:42:04;;;;;;;46.53;21.55;;;;;;;-1.94;100.00;98547.78;5110343;28;20020;-74
2022/01/07 01:44:29;;;;;;;52.22;20.90;;;;;;;-2.00;100.00;98550.44;5110753;28;20024;-73
2022/01/07 01:46:56;;;;;;;61.47;22.05;;;;;;;-1.91;100.00;98551.94;5110908;28;20223;-74
2022/01/07 01:49:22;;;;;;;46.95;19.55;;;;;;;-1.89;100.00;98548.03;5109538;28;20096;-73
2022/01/07 01:51:48;;;;;;;74.45;19.92;;;;;;;-1.84;100.00;98552.75;5110543;28;20525;-76
2022/01/07 01:54:13;;;;;;;57.25;20.55;;;;;;;-1.83;100.00;98549.06;5110307;28;20114;-74
2022/01/07 01:56:41;;;;;;;62.83;20.63;;;;;;;-1.87;100.00;98535.22;5110196;28;20052;-74
2022/01/07 01:59:07;;;;;;;46.10;21.05;;;;;;;-1.69;100.00;98540.00;5112198;28;20028;-74
2022/01/07 02:01:33;;;;;;;114.45;22.67;;;;;;;-1.69;100.00;98540.00;5110594;28;20065;-74
2022/01/07 02:03:59;;;;;;;72.35;21.23;;;;;;;-1.65;100.00;98538.59;5110049;28;20077;-74
2022/01/07 02:06:24;;;;;;;49.90;20.13;;;;;;;-1.58;100.00;98536.75;5111369;28;20023;-74
2022/01/07 02:08:50;;;;;;;35.63;16.35;;;;;;;-1.67;100.00;98535.28;5113065;28;20390;-74
2022/01/07 02:11:16;;;;;;;48.40;18.33;;;;;;;-1.81;100.00;98536.28;5110841;28;20027;-74
2022/01/07 02:13:42;;;;;;;76.45;17.48;;;;;;;-1.76;100.00;98525.78;5110941;28;20031;-74
2022/01/07 02:16:07;;;;;;;88.68;18.38;;;;;;;-1.92;100.00;98529.66;5110451;28;20027;-74
2022/01/07 02:18:33;;;;;;;61.35;19.63;;;;;;;-1.99;100.00;98520.78;5109958;28;20116;-74
2022/01/07 02:20:59;;;;;;;55.30;19.40;;;;;;;-1.95;100.00;98519.34;5109887;28;20016;-74
2022/01/07 02:23:24;;;;;;;62.67;20.38;;;;;;;-1.95;100.00;98518.50;5110802;28;20004;-74
2022/01/07 02:25:50;;;;;;;90.82;23.13;;;;;;;-1.92;100.00;98518.09;5110355;28;20045;-74
2022/01/07 02:28:15;;;;;;;79.03;22.70;;;;;;;-1.90;100.00;98526.75;5109850;28;20084;-73
2022/01/07 02:30:41;;;;;;;71.22;21.15;;;;;;;-1.90;100.00;98516.03;5109715;28;20134;-74
2022/01/07 02:33:06;;;;;;;104.00;24.75;;;;;;;-1.87;100.00;98521.00;5109809;28;20036;-74
2022/01/07 02:35:34;;;;;;;91.57;21.98;;;;;;;-1.84;100.00;98524.09;5110005;28;20456;-74
2022/01/07 02:38:01;;;;;;;73.88;21.77;;;;;;;-1.89;100.00;98515.03;5109914;28;20095;-74
2022/01/07 02:40:27;;;;;;;82.05;22.35;;;;;;;-2.00;100.00;98505.72;5109429;28;20031;-74
2022/01/07 02:42:53;;;;;;;120.15;21.58;;;;;;;-1.97;100.00;98512.53;5109762;28;20031;-74
2022/01/07 02:45:19;;;;;;;72.45;20.20;;;;;;;-1.94;100.00;98509.47;5109962;28;20037;-74
2022/01/07 02:47:51;;;;;;;61.47;21.63;;;;;;;-2.08;100.00;98510.44;5110546;28;20028;-74
2022/01/07 02:50:22;;;;;;;49.67;20.02;;;;;;;-1.99;100.00;98509.22;5110215;28;21006;-75
2022/01/07 02:52:49;;;;;;;54.60;21.02;;;;;;;-1.87;100.00;98515.63;5108260;28;20102;-74
2022/01/07 02:55:15;;;;;;;51.80;21.70;;;;;;;-1.91;100.00;98519.78;5110404;28;20580;-74
2022/01/07 02:57:41;;;;;;;66.00;20.92;;;;;;;-1.91;100.00;98519.78;5093231;28;20080;-74
2022/01/07 03:00:08;;;;;;;69.32;21.80;;;;;;;-1.87;100.00;98519.16;5101805;28;20039;-74
2022/01/07 03:02:34;;;;;;;47.47;19.98;;;;;;;-1.94;100.00;98525.53;5107266;28;20241;-74
2022/01/07 03:04:59;;;;;;;84.78;19.88;;;;;;;-2.08;100.00;98521.16;5109701;28;20020;-74
2022/01/07 03:07:25;;;;;;;48.28;20.15;;;;;;;-2.03;100.00;98521.34;5109794;28;20069;-74
2022/01/07 03:09:50;;;;;;;64.43;20.63;;;;;;;-2.14;100.00;98516.59;5111461;28;20066;-74
2022/01/07 03:12:16;;;;;;;60.15;20.15;;;;;;;-2.20;100.00;98515.56;5109333;28;20503;-74
2022/01/07 03:14:41;;;;;;;88.43;21.70;;;;;;;-2.21;100.00;98519.25;5109321;28;20110;-74
2022/01/07 03:17:07;;;;;;;72.13;21.92;;;;;;;-2.13;100.00;98516.38;5109780;28;20023;-74
2022/01/07 03:19:32;;;;;;;100.28;23.60;;;;;;;-2.24;100.00;98516.97;5109078;28;20031;-74
2022/01/07 03:21:57;;;;;;;57.60;20.73;;;;;;;-2.04;100.00;98519.72;5109048;28;20024;-73
2022/01/07 03:24:23;;;;;;;72.40;20.88;;;;;;;-2.11;100.00;98521.56;5109233;28;20464;-74
2022/01/07 03:26:48;;;;;;;79.13;22.52;;;;;;;-2.20;100.00;98513.69;5109927;28;20023;-75
2022/01/07 03:29:14;;;;;;;79.13;22.25;;;;;;;-2.13;100.00;98505.66;5110923;28;20028;-74
2022/01/07 03:31:39;;;;;;;109.55;23.25;;;;;;;-2.06;100.00;98508.38;5110049;28;20089;-74
2022/01/07 03:34:05;;;;;;;130.65;23.67;;;;;;;-2.14;100.00;98513.91;5109435;28;20146;-74
2022/01/07 03:36:30;;;;;;;63.63;22.10;;;;;;;-2.19;100.00;98506.47;5108897;28;20068;-75
2022/01/07 03:38:57;;;;;;;101.55;24.92;;;;;;;-2.14;100.00;98517.44;5108874;28;20032;-74
2022/01/07 03:41:23;;;;;;;69.78;22.00;;;;;;;-2.11;100.00;98506.31;5112187;28;20027;-74
2022/01/07 03:43:48;;;;;;;52.63;21.00;;;;;;;-2.23;100.00;98503.38;5111455;28;20035;-75
2022/01/07 03:46:14;;;;;;;51.05;20.65;;;;;;;-2.17;100.00;98510.63;5112544;28;20027;-75
2022/01/07 03:48:39;;;;;;;44.40;21.15;;;;;;;-2.19;100.00;98509.16;5114381;28;20030;-74
2022/01/07 03:51:04;;;;;;;50.33;21.17;;;;;;;-2.23;100.00;98510.59;5112773;28;20411;-74
2022/01/07 03:53:30;;;;;;;51.78;20.55;;;;;;;-2.18;100.00;98508.97;5113101;28;20154;-74
2022/01/07 03:55:55;;;;;;;51.25;22.48;;;;;;;-2.09;100.00;98500.72;5112149;28;20028;-74
2022/01/07 03:58:21;;;;;;;57.63;24.02;;;;;;;-2.07;100.00;98504.06;5112620;28;20020;-74
2022/01/07 04:00:46;;;;;;;51.72;21.38;;;;;;;-2.04;100.00;98500.97;5112375;28;20545;-74
2022/01/07 04:03:14;;;;;;;45.88;20.95;;;;;;;-2.04;100.00;98504.47;5112481;28;20027;-74
2022/01/07 04:05:41;;;;;;;47.72;20.60;;;;;;;-2.14;100.00;98503.19;5112434;28;20023;-74
2022/01/07 04:08:07;;;;;;;42.72;17.92;;;;;;;-2.11;100.00;98498.28;5112008;28;20011;-74
2022/01/07 04:10:35;;;;;;;38.00;16.87;;;;;;;-2.09;100.00;98498.06;5111867;28;20023;-74
2022/01/07 04:13:00;;;;;;;39.13;18.45;;;;;;;-2.03;100.00;98492.72;5112833;28;20055;-75
2022/01/07 04:15:26;;;;;;;45.30;19.13;;;;;;;-1.96;100.00;98498.09;5111632;28;20030;-74
2022/01/07 04:17:54;;;;;;;39.40;18.30;;;;;;;-1.86;100.00;98502.06;5112806;28;20024;-74
2022/01/07 04:20:22;;;;;;;44.38;19.45;;;;;;;-1.92;100.00;98494.00;5116046;28;20078;-74
2022/01/07 04:22:48;;;;;;;40.88;18.88;;;;;;;-1.94;100.00;98501.41;5113271;28;20566;-74
2022/01/07 04:25:19;;;;;;;41.35;18.33;;;;;;;-1.88;100.00;98498.72;5111486;28;20024;-74
2022/01/07 04:27:53;;;;;;;43.08;18.83;;;;;;;-1.89;100.00;98506.97;5111760;28;20023;-75
2022/01/07 04:30:21;;;;;;;48.90;20.95;;;;;;;-1.94;100.00;98509.47;5109273;28;20024;-75
2022/01/07 04:32:47;;;;;;;46.05;21.80;;;;;;;-1.84;100.00;98515.22;5111690;28;20046;-74
2022/01/07 04:35:13;;;;;;;48.00;21.33;;;;;;;-1.83;100.00;98516.91;5106720;28;20045;-74
2022/01/07 04:37:39;;;;;;;43.03;19.52;;;;;;;-1.77;100.00;98510.72;5112386;28;20016;-74
2022/01/07 04:40:06;;;;;;;45.90;20.05;;;;;;;-1.80;100.00;98516.50;5111829;28;20030;-74
2022/01/07 04:42:31;;;;;;;40.78;18.88;;;;;;;-1.78;100.00;98517.09;5113416;28;20036;-73
2022/01/07 04:44:57;;;;;;;41.85;18.75;;;;;;;-1.75;100.00;98516.69;5112604;28;20540;-73
2022/01/07 04:47:22;;;;;;;41.53;18.95;;;;;;;-1.75;100.00;98519.38;5111405;28;20074;-74
2022/01/07 04:49:48;;;;;;;42.75;19.70;;;;;;;-1.70;100.00;98520.44;5111337;28;20464;-74
2022/01/07 04:52:13;;;;;;;36.65;17.77;;;;;;;-1.71;100.00;98513.41;5111044;28;20508;-74
2022/01/07 04:54:38;;;;;;;38.60;19.10;;;;;;;-1.72;100.00;98518.97;5112008;27;20039;-74
2022/01/07 04:57:04;;;;;;;44.83;17.27;;;;;;;-1.67;100.00;98522.72;5111219;28;20048;-74
2022/01/07 04:59:29;;;;;;;41.92;18.83;;;;;;;-1.82;100.00;98516.72;5111742;28;20535;-74
2022/01/07 05:01:55;;;;;;;39.33;17.60;;;;;;;-1.83;100.00;98514.22;5112733;28;20107;-75
2022/01/07 05:04:21;;;;;;;40.58;17.50;;;;;;;-1.86;100.00;98511.94;5113164;27;20036;-74
2022/01/07 05:06:47;;;;;;;44.58;18.25;;;;;;;-1.84;100.00;98510.69;5111595;28;20066;-74
2022/01/07 05:09:16;;;;;;;34.53;16.52;;;;;;;-1.74;100.00;98511.13;5111129;28;20012;-74
2022/01/07 05:11:49;;;;;;;36.70;15.95;;;;;;;-1.79;100.00;98507.44;5108466;28;20035;-74
2022/01/07 05:14:15;;;;;;;35.38;15.82;;;;;;;-1.94;100.00;98506.78;5109361;28;20058;-74
2022/01/07 05:16:41;;;;;;;35.03;15.73;;;;;;;-1.91;100.00;98509.06;5111019;28;20024;-75
2022/01/07 05:19:06;;;;;;;33.30;16.63;;;;;;;-1.84;100.00;98512.56;5111017;28;20022;-74
2022/01/07 05:21:33;;;;;;;38.13;15.15;;;;;;;-1.92;100.00;98504.72;5110448;28;20024;-74
2022/01/07 05:23:58;;;;;;;33.60;16.30;;;;;;;-1.81;100.00;98509.47;5110766;28;20024;-73
2022/01/07 05:26:24;;;;;;;33.45;15.38;;;;;;;-1.85;100.00;98505.56;5110721;28;20026;-74
2022/01/07 05:28:52;;;;;;;38.30;17.38;;;;;;;-1.86;100.00;98506.56;5111455;28;20035;-74
2022/01/07 05:31:19;;;;;;;37.88;17.58;;;;;;;-1.91;100.00;98507.16;5110995;28;20080;-74
2022/01/07 05:33:45;;;;;;;43.35;18.88;;;;;;;-1.90;100.00;98511.50;5110438;28;20020;-74
2022/01/07 05:36:10;;;;;;;35.78;16.85;;;;;;;-1.87;100.00;98521.00;5110651;28;20030;-74
2022/01/07 05:38:36;;;;;;;38.08;17.60;;;;;;;-1.91;100.00;98514.41;5112279;28;20031;-73
2022/01/07 05:41:01;;;;;;;35.22;17.52;;;;;;;-1.83;100.00;98512.38;5111088;28;20028;-74
2022/01/07 05:43:28;;;;;;;40.47;18.17;;;;;;;-1.82;100.00;98508.66;5110494;28;20384;-74
2022/01/07 05:45:54;;;;;;;36.25;17.73;;;;;;;-1.85;100.00;98508.25;5110264;28;20028;-74
2022/01/07 05:48:19;;;;;;;37.63;16.95;;;;;;;-1.80;100.00;98511.13;5110363;28;20403;-74
2022/01/07 05:50:45;;;;;;;39.70;17.00;;;;;;;-1.79;100.00;98518.97;5110059;28;20051;-75
2022/01/07 05:53:10;;;;;;;39.28;18.38;;;;;;;-1.88;100.00;98514.81;5110469;28;20027;-74
2022/01/07 05:55:36;;;;;;;43.03;18.63;;;;;;;-1.84;100.00;98520.59;5110448;28;20039;-74
2022/01/07 05:58:01;;;;;;;38.72;18.55;;;;;;;-1.83;100.00;98520.41;5110411;28;20392;-74
2022/01/07 06:00:27;;;;;;;39.05;18.25;;;;;;;-1.78;100.00;98525.13;5110588;27;20024;-74
2022/01/07 06:02:52;;;;;;;44.60;19.88;;;;;;;-1.76;100.00;98523.09;5110092;28;20027;-74
2022/01/07 06:05:18;;;;;;;43.58;18.67;;;;;;;-1.74;100.00;98523.72;5110499;28;20035;-74
2022/01/07 06:07:43;;;;;;;39.78;16.70;;;;;;;-1.67;100.00;98533.44;5110473;28;20429;-74
2022/01/07 06:10:09;;;;;;;37.13;17.63;;;;;;;-1.65;100.00;98525.16;5109902;28;20197;-74
2022/01/07 06:12:34;;;;;;;39.08;18.73;;;;;;;-1.70;100.00;98533.00;5109862;28;20499;-74
2022/01/07 06:15:00;;;;;;;39.10;17.90;;;;;;;-1.77;100.00;98526.81;5110703;28;20056;-74
2022/01/07 06:17:25;;;;;;;31.63;16.05;;;;;;;-1.87;100.00;98526.34;5097606;28;20073;-74
2022/01/07 06:19:51;;;;;;;34.78;16.08;;;;;;;-1.85;100.00;98535.03;5108497;28;20051;-74
2022/01/07 06:22:17;;;;;;;40.65;17.80;;;;;;;-1.94;100.00;98531.69;5106333;28;20091;-73
2022/01/07 06:24:43;;;;;;;38.13;16.63;;;;;;;-1.91;100.00;98531.28;5109989;28;20026;-74
2022/01/07 06:27:10;;;;;;;39.95;17.33;;;;;;;-2.05;100.00;98526.09;5110308;28;20024;-74
2022/01/07 06:29:38;;;;;;;42.75;17.63;;;;;;;-2.02;100.00;98531.06;5110482;28;20020;-75
2022/01/07 06:32:04;;;;;;;40.00;18.73;;;;;;;-2.02;100.00;98533.75;5113345;28;20042;-74
2022/01/07 06:34:30;;;;;;;34.70;15.00;;;;;;;-2.02;100.00;98534.56;5104951;28;21094;-74
2022/01/07 06:36:55;;;;;;;36.05;17.05;;;;;;;-2.01;100.00;98535.41;5089863;28;20024;-74
2022/01/07 06:39:22;;;;;;;37.22;16.63;;;;;;;-2.01;100.00;98535.41;5100531;28;20418;-75
2022/01/07 06:41:50;;;;;;;37.67;16.25;;;;;;;-1.94;100.00;98531.69;5106284;28;20032;-74
2022/01/07 06:44:16;;;;;;;37.90;16.35;;;;;;;-2.05;100.00;98532.28;5109383;28;20051;-75
2022/01/07 06:46:41;;;;;;;32.85;15.85;;;;;;;-1.97;100.00;98531.31;5106815;28;20020;-75
2022/01/07 06:49:07;;;;;;;36.70;16.90;;;;;;;-2.05;100.00;98520.75;5109457;28;20383;-74
2022/01/07 06:51:32;;;;;;;37.40;16.30;;;;;;;-1.98;100.00;98524.28;5109853;28;20031;-74
2022/01/07 06:53:59;;;;;;;37.75;16.50;;;;;;;-1.95;100.00;98529.22;5110444;28;20039;-75
2022/01/07 06:56:24;;;;;;;41.25;17.95;;;;;;;-1.91;100.00;98530.50;5111180;28;20054;-75
2022/01/07 06:58:50;;;;;;;37.72;17.75;;;;;;;-2.00;100.00;98532.50;5109736;28;20020;-74
2022/01/07 07:01:16;;;;;;;40.88;17.88;;;;;;;-1.93;100.00;98524.50;5108689;28;20031;-74
2022/01/07 07:03:41;;;;;;;35.65;16.88;;;;;;;-1.85;100.00;98530.47;5110031;28;20035;-74
2022/01/07 07:06:07;;;;;;;34.00;16.30;;;;;;;-1.89;100.00;98523.06;5107808;28;20069;-74
2022/01/07 07:08:33;;;;;;;31.88;15.15;;;;;;;-2.02;100.00;98525.69;5109272;28;20015;-74
2022/01/07 07:10:58;;;;;;;35.45;15.10;;;;;;;-1.92;100.00;98528.81;5109419;28;20763;-74
2022/01/07 07:13:24;;;;;;;35.40;16.50;;;;;;;-2.07;100.00;98522.81;5108924;28;20106;-74
2022/01/07 07:15:49;;;;;;;39.13;16.05;;;;;;;-2.02;100.00;98525.69;5111503;28;20027;-74
2022/01/07 07:18:15;;;;;;;39.33;16.42;;;;;;;-2.08;100.00;98523.81;5112940;28;20528;-75
2022/01/07 07:20:41;;;;;;;41.00;17.13;;;;;;;-2.07;100.00;98530.84;5113096;28;20026;-74
2022/01/07 07:23:06;;;;;;;38.95;17.10;;;;;;;-2.07;100.00;98525.50;5113495;28;20055;-74
2022/01/07 07:25:31;;;;;;;36.45;17.02;;;;;;;-1.96;100.00;98527.56;5113132;28;20036;-75
2022/01/07 07:27:57;;;;;;;33.50;15.55;;;;;;;-1.96;100.00;98528.41;5106273;28;20059;-74
2022/01/07 07:30:24;;;;;;;32.38;15.00;;;;;;;-1.91;100.00;98527.81;5097426;28;20016;-74
2022/01/07 07:32:53;;;;;;;31.10;14.68;;;;;;;-2.03;100.00;98519.50;5112172;28;20034;-74
2022/01/07 07:37:43;;;;;;;36.25;16.75;;;;;;;-2.11;100.00;98516.19;5112343;28;20019;-74
2022/01/07 07:40:10;;;;;;;31.55;13.63;;;;;;;-2.00;100.00;98510.22;5112269;28;20032;-74
2022/01/07 07:42:37;;;;;;;34.38;16.63;;;;;;;-1.93;100.00;98508.41;5112084;28;20011;-74
2022/01/07 07:45:03;;;;;;;43.38;16.75;;;;;;;-1.85;100.00;98522.44;5112057;28;20135;-74
2022/01/07 07:47:28;;;;;;;36.38;16.77;;;;;;;-1.72;100.00;98530.53;5112158;28;20042;-75
2022/01/07 07:49:54;;;;;;;39.95;17.90;;;;;;;-1.78;100.00;98525.13;5112541;28;20011;-75
2022/01/07 07:52:19;;;;;;;43.13;15.40;;;;;;;-1.66;100.00;98524.34;5112456;28;20038;-74
2022/01/07 07:54:44;;;;;;;36.30;16.33;;;;;;;-1.71;100.00;98523.31;5112480;28;20171;-75
2022/01/07 07:57:10;;;;;;;36.63;16.52;;;;;;;-1.63;100.00;98529.28;5111770;28;20391;-74
2022/01/07 07:59:35;;;;;;;34.65;15.85;;;;;;;-1.59;100.00;98529.72;5112354;28;20080;-75
2022/01/07 08:02:02;;;;;;;30.23;14.38;;;;;;;-1.57;100.00;98521.50;5112226;28;20032;-74
2022/01/07 08:04:28;;;;;;;35.30;15.25;;;;;;;-1.57;100.00;98518.81;5110771;28;20035;-75
2022/01/07 08:06:54;;;;;;;28.45;14.90;;;;;;;-1.52;100.00;98514.47;5111716;28;20437;-75
2022/01/07 08:09:20;;;;;;;33.28;15.77;;;;;;;-1.43;100.00;98515.09;5111733;28;20026;-75
2022/01/07 08:11:51;;;;;;;34.03;16.00;;;;;;;-1.44;100.00;98516.94;5099519;27;20028;-76
2022/01/07 08:17:02;;;;;;;37.30;16.40;;;;;;;-1.31;100.00;98516.97;5108374;28;20502;-76
2022/01/07 08:19:27;;;;;;;31.02;15.40;;;;;;;-1.22;100.00;98513.03;5111843;28;20023;-76
2022/01/07 08:21:53;;;;;;;34.20;16.45;;;;;;;-1.24;100.00;98516.97;5112030;28;20126;-76
2022/01/07 08:24:18;;;;;;;33.55;15.93;;;;;;;-1.23;100.00;98511.41;5112082;28;20027;-76
2022/01/07 08:26:44;;;;;;;37.10;18.27;;;;;;;-1.29;100.00;98514.91;5110840;28;20027;-75
2022/01/07 08:29:11;;;;;;;46.92;19.00;;;;;;;-1.27;100.00;98515.53;5112162;28;20111;-75
2022/01/07 08:36:51;;;;;;;35.08;15.70;;;;;;;-0.95;100.00;98515.72;5112172;28;20072;-75
2022/01/07 08:39:16;;;;;;;31.45;14.55;;;;;;;-1.14;100.00;98525.44;5110909;28;20115;-76
2022/01/07 08:41:43;;;;;;;30.08;14.60;;;;;;;-1.02;100.00;98517.56;5112216;28;20022;-75
2022/01/07 08:44:09;;;;;;;30.25;16.30;;;;;;;-0.84;100.00;98523.13;5112704;28;20024;-74
2022/01/07 08:46:36;;;;;;;31.13;15.15;;;;;;;-0.78;100.00;98525.81;5110208;28;20031;-74
2022/01/07 08:49:03;;;;;;;26.67;14.45;;;;;;;-0.84;100.00;98525.81;5113317;28;20023;-74
2022/01/07 08:51:28;;;;;;;39.08;17.02;;;;;;;-1.07;100.00;98529.75;5111364;28;20104;-73
2022/01/07 08:53:55;;;;;;;34.97;15.95;;;;;;;-1.04;100.00;98531.22;5106306;28;20473;-74
2022/01/07 08:56:25;;;;;;;33.72;15.30;;;;;;;-0.99;100.00;98530.56;5110696;28;20047;-74
2022/01/07 08:58:55;;;;;;;31.17;14.82;;;;;;;-0.87;100.00;98528.91;5105383;28;20012;-74
2022/01/07 09:01:22;;;;;;;28.33;14.50;;;;;;;-0.69;100.00;98529.13;5107196;28;21091;-74
2022/01/07 09:03:48;;;;;;;26.13;13.48;;;;;;;-0.58;100.00;98533.81;5110304;28;20108;-73
2022/01/07 09:06:17;;;;;;;35.67;14.57;;;;;;;-0.65;100.00;98531.16;5107966;28;20016;-73
2022/01/07 09:08:44;;;;;;;29.95;14.93;;;;;;;-0.61;100.00;98528.88;5110277;28;20027;-74
2022/01/07 09:11:11;;;;;;;25.85;13.63;;;;;;;-0.59;100.00;98526.78;5104714;28;20449;-74
2022/01/07 09:13:39;;;;;;;28.08;14.10;;;;;;;-0.53;100.00;98525.94;5089947;28;20055;-75
2022/01/07 09:16:05;;;;;;;31.00;13.23;;;;;;;-0.48;100.00;98520.78;5091065;28;20045;-75
2022/01/07 09:18:32;;;;;;;31.50;15.00;;;;;;;-0.35;100.00;98512.69;5110542;28;20377;-75
2022/01/07 09:20:58;;;;;;;30.00;14.43;;;;;;;-0.30;100.00;98512.88;5110099;28;20027;-74
2022/01/07 09:23:23;;;;;;;26.80;13.32;;;;;;;-0.10;100.00;98515.50;5108970;28;20552;-74
2022/01/07 09:25:49;;;;;;;30.45;14.30;;;;;;;-0.01;100.00;98504.28;5107932;28;20099;-73
2022/01/07 09:28:14;;;;;;;32.13;15.10;;;;;;;0.08;100.00;98509.41;5106646;28;20100;-73
2022/01/07 09:30:40;;;;;;;25.98;14.43;;;;;;;-0.22;100.00;98503.75;5106429;28;20016;-75
2022/01/07 09:33:05;;;;;;;26.27;12.27;;;;;;;-0.46;100.00;98497.22;5102792;28;20016;-74
2022/01/07 09:35:31;;;;;;;22.55;12.27;;;;;;;0.74;100.00;98505.25;5104851;28;20027;-75
2022/01/07 09:37:57;;;;;;;21.40;11.27;;;;;;;2.80;97.24;98501.53;5107051;28;20035;-75
2022/01/07 09:40:22;;;;;;;23.48;11.40;;;;;;;5.38;79.65;98500.28;5107779;28;20023;-75
2022/01/07 09:43:03;;;;;;;23.63;12.38;;;;;;;5.54;75.47;98497.78;5109600;28;20028;-74
2022/01/07 09:45:31;;;;;;;17.13;10.15;;;;;;;3.88;78.57;98495.66;5106912;28;20027;-74
2022/01/07 09:47:56;;;;;;;21.98;13.57;;;;;;;2.44;86.58;98494.44;5106082;28;20020;-73
2022/01/07 09:50:24;;;;;;;21.13;11.10;;;;;;;1.79;91.07;98484.50;5108651;28;20026;-74
2022/01/07 09:52:50;;;;;;;24.60;11.10;;;;;;;1.71;92.95;98487.50;5105051;28;20023;-74
2022/01/07 09:55:15;;;;;;;21.60;11.63;;;;;;;1.73;100.00;98474.63;5108324;28;20058;-74
2022/01/07 09:57:41;;;;;;;22.27;11.60;;;;;;;1.65;95.25;98480.31;5103559;28;20466;-74
2022/01/07 10:00:08;;;;;;;21.67;11.63;;;;;;;1.15;97.52;98476.94;5106285;28;20106;-74
2022/01/07 10:02:34;;;;;;;22.95;11.35;;;;;;;1.36;97.47;98468.41;5105711;28;20027;-75
2022/01/07 10:05:14;;;;;;;22.83;12.52;;;;;;;1.57;96.23;98454.47;5107026;28;20085;-75
2022/01/07 10:07:40;;;;;;;22.27;11.70;;;;;;;1.37;97.45;98459.28;5106841;28;20080;-76
2022/01/07 10:10:08;;;;;;;23.17;11.77;;;;;;;1.08;99.41;98453.56;5107667;28;20011;-76
2022/01/07 10:12:59;;;;;;;39.85;19.67;;;;;;;0.91;100.00;98448.97;5108498;28;20077;-76
2022/01/07 10:15:30;;;;;;;21.25;11.40;;;;;;;1.19;99.64;98448.50;5106995;28;20070;-76
2022/01/07 10:17:57;;;;;;;25.38;12.52;;;;;;;1.34;98.92;98446.25;5107314;28;20019;-76
2022/01/07 10:20:28;;;;;;;21.80;12.45;;;;;;;1.48;98.01;98445.88;5107026;28;20104;-77
2022/01/07 10:23:06;;;;;;;18.42;11.23;;;;;;;1.70;96.02;98432.75;5101275;28;20464;-75
2022/01/07 10:25:42;;;;;;;21.98;11.15;;;;;;;1.60;95.88;98429.78;5101896;28;20066;-75
2022/01/07 10:28:11;;;;;;;20.58;11.60;;;;;;;1.82;95.34;98428.25;5088835;28;20024;-77
2022/01/07 10:30:39;;;;;;;20.17;10.63;;;;;;;3.09;88.40;98421.47;5102956;28;20527;-73
2022/01/07 10:33:20;;;;;;;17.83;9.95;;;;;;;4.08;83.31;98418.38;5106509;28;20032;-74
2022/01/07 10:35:48;;;;;;;20.92;11.27;;;;;;;3.82;83.22;98418.16;5093106;28;20047;-78
2022/01/07 10:38:54;;;;;;;17.98;9.88;;;;;;;4.26;78.99;98420.88;5104370;28;20024;-74
2022/01/07 10:41:21;;;;;;;17.92;9.70;;;;;;;4.67;77.08;98410.75;5086318;28;20040;-74
2022/01/07 10:43:47;;;;;;;22.13;12.23;;;;;;;3.80;79.92;98402.16;5104483;28;20020;-74
2022/01/07 10:46:15;;;;;;;19.77;11.18;;;;;;;2.89;85.27;98400.19;5102382;28;20107;-73
2022/01/07 10:48:53;;;;;;;22.90;12.60;;;;;;;2.42;88.79;98395.81;5101118;28;20023;-74
2022/01/07 10:51:26;;;;;;;24.55;13.85;;;;;;;1.72;94.82;98384.84;5109327;28;20023;-73
2022/01/07 10:54:05;;;;;;;25.50;14.35;;;;;;;1.73;94.64;98381.06;5110128;28;20032;-74
2022/01/07 10:56:36;;;;;;;29.05;16.00;;;;;;;1.18;100.00;98368.72;5106939;28;20089;-73
2022/01/07 10:59:07;;;;;;;35.40;18.77;;;;;;;0.54;100.00;98373.53;5103928;28;20031;-74
2022/01/07 11:01:33;;;;;;;31.17;16.95;;;;;;;0.73;100.00;98366.31;5107070;28;20040;-74
2022/01/07 11:04:02;;;;;;;38.83;20.92;;;;;;;0.93;100.00;98360.72;5103497;28;20562;-75
2022/01/07 11:06:29;;;;;;;39.33;20.27;;;;;;;1.06;100.00;98350.66;5108467;28;20096;-74
2022/01/07 11:08:56;;;;;;;39.13;19.65;;;;;;;1.06;100.00;98345.25;5105582;28;20388;-76
2022/01/07 11:11:25;;;;;;;29.80;17.08;;;;;;;1.08;100.00;98337.75;5095628;28;20423;-74
2022/01/07 11:13:51;;;;;;;29.73;16.67;;;;;;;1.23;100.00;98331.97;5101492;28;20026;-75
2022/01/07 11:16:17;;;;;;;31.92;17.08;;;;;;;1.28;100.00;98337.53;5106572;28;20016;-75
2022/01/07 11:18:45;;;;;;;31.35;17.98;;;;;;;1.66;100.00;98333.72;5095488;28;20439;-75